Time;durP1;ratioP1;P1;durP2;ratioP2;P2;SDS_P1;SDS_P2;PMS_P1;PMS_P2;Temp;Humidity;BMP_temperature;BMP_pressure;BME280_temperature;BME280_humidity;BME280_pressure;Samples;Min_cycle;Max_cycle;Signal;HPM_P1;HPM_P2
2023/06/25 00:02:19;;;;;;;2.00;2.00;;;24.10;70.50;;;;;;5043440;28;44158;-77
2023/06/25 00:04:47;;;;;;;1.80;1.80;;;24.10;70.60;;;;;;5046777;28;43496;-77
2023/06/25 00:07:22;;;;;;;1.93;1.93;;;24.10;70.70;;;;;;5035198;28;45939;-77
2023/06/25 00:10:04;;;;;;;1.80;1.80;;;24.10;70.90;;;;;;5033275;28;44445;-76
2023/06/25 00:12:39;;;;;;;2.10;2.10;;;24.10;70.70;;;;;;5049698;28;43416;-77
2023/06/25 00:15:14;;;;;;;1.90;1.90;;;24.20;70.40;;;;;;5030749;28;43384;-77
2023/06/25 00:17:49;;;;;;;1.80;1.80;;;24.40;70.00;;;;;;5046159;28;43931;-78
2023/06/25 00:20:19;;;;;;;1.80;1.80;;;24.40;69.70;;;;;;5057423;28;43492;-78
2023/06/25 00:22:47;;;;;;;1.90;1.90;;;24.40;69.70;;;;;;5030653;28;43539;-76
2023/06/25 00:25:35;;;;;;;2.00;2.00;;;24.30;69.80;;;;;;5030926;28;43909;-75
2023/06/25 00:28:08;;;;;;;1.80;1.80;;;24.30;70.30;;;;;;5027888;28;45545;-76
2023/06/25 00:30:42;;;;;;;1.70;1.70;;;24.20;70.30;;;;;;5040640;28;43483;-77
2023/06/25 00:33:12;;;;;;;1.73;1.73;;;24.20;70.20;;;;;;5031818;28;43455;-77
2023/06/25 00:36:00;;;;;;;1.93;1.93;;;24.20;70.40;;;;;;5040208;28;43499;-76
2023/06/25 00:38:42;;;;;;;2.00;2.00;;;24.10;70.70;;;;;;5026510;28;46527;-76
2023/06/25 00:41:11;;;;;;;2.00;2.00;;;24.10;70.60;;;;;;5046206;28;43714;-78
2023/06/25 00:43:43;;;;;;;1.83;1.83;;;24.20;70.30;;;;;;5057590;28;43495;-75
2023/06/25 00:46:15;;;;;;;2.20;2.07;;;24.20;70.10;;;;;;5049858;28;43671;-76
2023/06/25 00:48:48;;;;;;;1.70;1.70;;;24.20;70.10;;;;;;5039720;28;43624;-77
2023/06/25 00:51:17;;;;;;;1.80;1.80;;;24.10;70.40;;;;;;5046318;28;44433;-77
2023/06/25 00:53:46;;;;;;;1.70;1.70;;;24.20;70.40;;;;;;5046056;28;43392;-77
2023/06/25 00:56:16;;;;;;;1.77;1.77;;;24.20;70.40;;;;;;5033293;28;44023;-76
2023/06/25 00:58:44;;;;;;;1.90;1.90;;;24.20;70.40;;;;;;5029620;28;45404;-78
2023/06/25 01:01:17;;;;;;;1.90;1.90;;;24.10;70.60;;;;;;5027219;28;44707;-76
2023/06/25 01:03:54;;;;;;;1.80;1.80;;;24.10;70.70;;;;;;5034980;28;43444;-76
2023/06/25 01:06:41;;;;;;;2.10;2.10;;;24.10;70.40;;;;;;5038948;28;43531;-76
2023/06/25 01:09:15;;;;;;;1.63;1.63;;;24.30;70.10;;;;;;5056476;28;43710;-76
2023/06/25 01:11:53;;;;;;;1.90;1.90;;;24.40;69.60;;;;;;5023569;28;43440;-76
2023/06/25 01:14:28;;;;;;;1.70;1.70;;;24.40;69.40;;;;;;5045438;28;43329;-77
2023/06/25 01:16:58;;;;;;;1.70;1.70;;;24.40;69.40;;;;;;5042638;28;43512;-77
2023/06/25 01:19:31;;;;;;;1.70;1.70;;;24.30;69.70;;;;;;5045083;28;43606;-77
2023/06/25 01:22:02;;;;;;;1.87;1.87;;;24.30;70.20;;;;;;5042653;28;43334;-77
2023/06/25 01:24:44;;;;;;;1.90;1.90;;;24.20;70.20;;;;;;5045024;28;43495;-79
2023/06/25 01:27:14;;;;;;;1.80;1.80;;;24.20;70.10;;;;;;5058360;28;43619;-76
2023/06/25 01:29:49;;;;;;;2.00;2.00;;;24.20;70.40;;;;;;5027023;28;44842;-77
2023/06/25 01:32:24;;;;;;;1.97;1.97;;;24.10;70.60;;;;;;5042654;28;44412;-77
2023/06/25 01:34:54;;;;;;;1.80;1.80;;;24.10;70.60;;;;;;5032143;28;43451;-78
2023/06/25 01:37:22;;;;;;;1.80;1.80;;;24.10;70.60;;;;;;5032077;28;43744;-76
2023/06/25 01:39:52;;;;;;;1.90;1.90;;;24.10;70.70;;;;;;5044911;28;43688;-77
2023/06/25 01:42:20;;;;;;;1.90;1.90;;;24.00;70.80;;;;;;5040022;28;43452;-77
2023/06/25 01:44:49;;;;;;;1.90;1.90;;;24.10;70.60;;;;;;5045207;28;43532;-76
2023/06/25 01:47:17;;;;;;;1.80;1.80;;;24.20;70.30;;;;;;5027545;28;43583;-78
2023/06/25 01:49:47;;;;;;;1.80;1.80;;;24.30;69.90;;;;;;5047654;28;43875;-78
2023/06/25 01:52:15;;;;;;;1.80;1.80;;;24.40;69.60;;;;;;5049496;28;43435;-76
2023/06/25 01:54:46;;;;;;;1.80;1.80;;;24.40;69.40;;;;;;5030980;28;43539;-78
2023/06/25 01:57:17;;;;;;;1.73;1.73;;;24.40;69.40;;;;;;5031234;28;43626;-79
2023/06/25 01:59:49;;;;;;;1.80;1.80;;;24.30;69.90;;;;;;5033460;28;45754;-76
2023/06/25 02:02:18;;;;;;;1.93;1.93;;;24.30;70.00;;;;;;5056747;28;43945;-77
2023/06/25 02:04:49;;;;;;;2.37;2.27;;;24.30;70.20;;;;;;5030807;28;43427;-79
2023/06/25 02:07:17;;;;;;;1.90;1.90;;;24.20;70.10;;;;;;5032603;28;43475;-77
2023/06/25 02:09:46;;;;;;;1.60;1.60;;;24.20;70.40;;;;;;5047602;28;43719;-78
2023/06/25 02:12:14;;;;;;;2.00;2.00;;;24.10;70.60;;;;;;5049330;28;45118;-78
2023/06/25 02:14:46;;;;;;;1.77;1.77;;;24.10;71.30;;;;;;5032544;28;43996;-76
2023/06/25 02:17:16;;;;;;;2.03;2.03;;;24.10;70.60;;;;;;5033809;28;43527;-79
2023/06/25 02:19:44;;;;;;;2.30;2.30;;;24.10;70.70;;;;;;5048336;28;46077;-79
2023/06/25 02:22:13;;;;;;;1.83;1.83;;;24.00;70.80;;;;;;5041307;28;43352;-77
2023/06/25 02:24:46;;;;;;;1.90;1.90;;;24.10;70.70;;;;;;5048118;28;43458;-78
2023/06/25 02:27:15;;;;;;;2.07;2.07;;;24.20;70.40;;;;;;5032369;28;44011;-78
2023/06/25 02:29:47;;;;;;;1.90;1.80;;;24.30;69.90;;;;;;5029319;28;45933;-76
2023/06/25 02:32:15;;;;;;;1.90;1.90;;;24.40;69.60;;;;;;5047815;28;43390;-78
2023/06/25 02:35:36;;;;;;;1.90;1.90;;;24.40;69.30;;;;;;5050708;28;43486;-78
2023/06/25 02:38:37;;;;;;;2.10;2.10;;;24.40;69.60;;;;;;5047425;28;43552;-76
2023/06/25 02:41:08;;;;;;;1.70;1.70;;;24.30;70.80;;;;;;5031869;28;45659;-76
2023/06/25 02:43:38;;;;;;;1.83;1.83;;;24.20;70.00;;;;;;5029247;28;44487;-76
2023/06/25 02:46:12;;;;;;;1.70;1.70;;;24.20;70.10;;;;;;5046728;28;44174;-78
2023/06/25 02:48:43;;;;;;;1.90;1.80;;;24.20;70.90;;;;;;5047892;28;43527;-77
2023/06/25 02:51:15;;;;;;;2.00;2.00;;;24.10;70.60;;;;;;5023160;28;44157;-77
2023/06/25 02:53:44;;;;;;;1.97;1.97;;;24.10;70.60;;;;;;5032307;28;45388;-77
2023/06/25 02:56:13;;;;;;;1.80;1.80;;;24.10;70.60;;;;;;5026877;28;43403;-76
2023/06/25 02:58:44;;;;;;;1.93;1.93;;;24.10;70.60;;;;;;5034872;28;43616;-77
2023/06/25 03:01:20;;;;;;;1.90;1.90;;;24.00;70.80;;;;;;5031519;28;45609;-77
2023/06/25 03:03:49;;;;;;;1.67;1.67;;;24.00;70.70;;;;;;5032989;28;45047;-76
2023/06/25 03:06:17;;;;;;;1.90;1.90;;;24.10;70.40;;;;;;5046866;28;43823;-77
2023/06/25 03:08:50;;;;;;;1.80;1.80;;;24.30;70.10;;;;;;5051048;28;43661;-77
2023/06/25 03:11:19;;;;;;;1.70;1.70;;;24.40;69.70;;;;;;5046925;28;44319;-78
2023/06/25 03:13:51;;;;;;;1.80;1.80;;;24.40;69.40;;;;;;5053295;28;44668;-81
2023/06/25 03:16:20;;;;;;;1.73;1.73;;;24.40;69.30;;;;;;5047444;28;43943;-77
2023/06/25 03:18:49;;;;;;;2.37;2.13;;;24.30;69.60;;;;;;5029210;28;43471;-77
2023/06/25 03:21:17;;;;;;;2.30;2.30;;;24.30;69.80;;;;;;5047625;28;43799;-78
2023/06/25 03:23:51;;;;;;;2.30;2.20;;;24.20;69.80;;;;;;5031018;28;43470;-77
2023/06/25 03:26:19;;;;;;;4.53;2.40;;;24.20;69.50;;;;;;5029951;28;43392;-77
2023/06/25 03:28:47;;;;;;;4.53;3.50;;;24.20;69.90;;;;;;5050972;28;43601;-78
2023/06/25 03:31:23;;;;;;;4.90;3.83;;;24.10;70.10;;;;;;5042135;28;43778;-80
2023/06/25 03:33:55;;;;;;;6.97;4.47;;;24.10;70.30;;;;;;5058051;28;43389;-77
2023/06/25 03:36:23;;;;;;;8.23;4.23;;;24.10;70.30;;;;;;5048580;28;43994;-79
2023/06/25 03:38:52;;;;;;;10.07;5.30;;;24.10;70.50;;;;;;5044504;28;43834;-78
2023/06/25 03:41:20;;;;;;;16.30;6.93;;;24.10;70.70;;;;;;5045392;28;45708;-77
2023/06/25 03:43:50;;;;;;;14.43;6.80;;;24.00;70.50;;;;;;5042358;28;43364;-77
2023/06/25 03:46:18;;;;;;;15.07;6.90;;;24.10;70.30;;;;;;5048973;28;43431;-77
2023/06/25 03:48:50;;;;;;;16.63;7.50;;;24.30;70.00;;;;;;5028986;28;43870;-77
2023/06/25 03:51:18;;;;;;;14.60;7.10;;;24.40;69.60;;;;;;5028721;28;46327;-78
2023/06/25 03:53:48;;;;;;;12.73;7.23;;;24.40;69.30;;;;;;5044940;28;44614;-77
2023/06/25 03:56:18;;;;;;;12.10;6.43;;;24.40;69.40;;;;;;5028955;28;43423;-79
2023/06/25 03:58:47;;;;;;;14.27;7.20;;;24.30;69.70;;;;;;5052330;28;43593;-78
2023/06/25 04:01:15;;;;;;;16.03;7.57;;;24.30;70.60;;;;;;5029380;28;44184;-76
2023/06/25 04:03:45;;;;;;;14.83;7.03;;;24.30;70.10;;;;;;5044716;28;44755;-77
2023/06/25 04:06:15;;;;;;;13.93;6.37;;;24.20;70.10;;;;;;5042807;28;43985;-77
2023/06/25 04:08:45;;;;;;;11.67;7.13;;;24.20;70.20;;;;;;5029228;28;43411;-77
2023/06/25 04:11:15;;;;;;;13.07;6.90;;;24.10;70.40;;;;;;5028250;28;46853;-77
2023/06/25 04:13:48;;;;;;;11.57;6.47;;;24.10;70.40;;;;;;5033268;28;45277;-77
2023/06/25 04:16:16;;;;;;;10.43;6.30;;;24.10;70.50;;;;;;5030323;28;43866;-77
2023/06/25 04:18:49;;;;;;;13.57;7.27;;;24.10;70.60;;;;;;5028446;28;44072;-77
2023/06/25 04:21:19;;;;;;;11.33;6.67;;;24.00;70.70;;;;;;5046682;28;43686;-77
2023/06/25 04:23:49;;;;;;;14.47;7.27;;;24.10;70.60;;;;;;5026089;28;44357;-78
2023/06/25 04:26:17;;;;;;;11.30;6.57;;;24.20;70.40;;;;;;5028251;28;43552;-77
2023/06/25 04:28:47;;;;;;;9.27;6.57;;;24.30;70.80;;;;;;5049634;28;43497;-77
2023/06/25 04:31:15;;;;;;;12.00;7.27;;;24.30;69.60;;;;;;5038521;28;45303;-78
2023/06/25 04:33:47;;;;;;;12.37;7.03;;;24.40;69.40;;;;;;5027199;28;44387;-78
2023/06/25 04:36:15;;;;;;;10.83;7.10;;;24.40;69.60;;;;;;5029054;28;43419;-78
2023/06/25 04:38:48;;;;;;;12.23;7.37;;;24.30;69.80;;;;;;5028293;28;43506;-78
2023/06/25 04:41:16;;;;;;;11.37;7.23;;;24.20;70.00;;;;;;5033657;28;45567;-76
2023/06/25 04:43:56;;;;;;;14.13;6.93;;;24.20;70.00;;;;;;5027354;28;44607;-76
2023/06/25 04:46:25;;;;;;;8.67;6.50;;;24.20;70.10;;;;;;5039489;28;43451;-77
2023/06/25 04:48:58;;;;;;;10.83;7.20;;;24.20;70.30;;;;;;5046470;28;43432;-77
2023/06/25 04:51:31;;;;;;;9.17;6.50;;;24.10;70.50;;;;;;5027944;28;45950;-77
2023/06/25 04:54:02;;;;;;;8.77;6.60;;;24.10;70.30;;;;;;5030426;28;43687;-77
2023/06/25 04:56:34;;;;;;;11.67;6.80;;;24.20;70.20;;;;;;5049110;28;43376;-79
2023/06/25 04:59:12;;;;;;;10.07;6.60;;;24.30;69.90;;;;;;5030090;28;43421;-78
2023/06/25 05:01:45;;;;;;;9.87;6.60;;;24.40;69.40;;;;;;5027814;28;45317;-79
2023/06/25 05:04:15;;;;;;;9.53;6.70;;;24.40;69.40;;;;;;5027254;28;44641;-77
2023/06/25 05:06:46;;;;;;;9.40;6.33;;;24.40;69.60;;;;;;5045964;28;43492;-78
2023/06/25 05:09:17;;;;;;;9.30;6.57;;;24.30;69.80;;;;;;5046173;28;43690;-77
2023/06/25 05:11:51;;;;;;;8.93;6.47;;;24.30;70.00;;;;;;5045441;28;43616;-78
2023/06/25 05:14:19;;;;;;;8.30;5.93;;;24.20;70.10;;;;;;5024369;28;44321;-77
2023/06/25 05:16:49;;;;;;;8.67;6.30;;;24.20;70.10;;;;;;5027851;28;43517;-78
2023/06/25 05:19:17;;;;;;;9.53;6.20;;;24.10;70.30;;;;;;5045951;28;43468;-77
2023/06/25 05:21:46;;;;;;;7.87;6.73;;;24.10;70.40;;;;;;5027353;28;45755;-77
2023/06/25 05:24:14;;;;;;;7.80;5.97;;;24.10;70.50;;;;;;5047365;28;43337;-78
2023/06/25 05:26:49;;;;;;;8.17;5.93;;;24.10;70.40;;;;;;5036485;28;43537;-76
2023/06/25 05:29:17;;;;;;;9.13;6.27;;;24.10;70.50;;;;;;5035252;28;43392;-77
2023/06/25 05:31:48;;;;;;;8.37;6.23;;;24.00;70.70;;;;;;5048852;28;43945;-78
2023/06/25 05:38:01;;;;;;;6.47;5.70;;;24.00;70.70;;;;;;5028885;28;44035;-77
2023/06/25 05:41:10;;;;;;;7.20;6.47;;;24.00;70.70;;;;;;5044592;28;43503;-78
2023/06/25 05:43:51;;;;;;;6.97;6.27;;;24.00;70.90;;;;;;5040030;28;45634;-76
2023/06/25 05:46:20;;;;;;;8.27;5.73;;;24.10;70.60;;;;;;5045237;28;43471;-78
2023/06/25 05:48:50;;;;;;;8.30;6.60;;;24.20;70.10;;;;;;5029887;28;43437;-77
2023/06/25 05:51:18;;;;;;;8.80;6.50;;;24.30;69.80;;;;;;5052097;28;43465;-78
2023/06/25 05:53:50;;;;;;;7.53;6.07;;;24.40;69.60;;;;;;5047971;28;44024;-77
2023/06/25 05:56:41;;;;;;;7.23;5.53;;;24.40;69.50;;;;;;5048939;28;43404;-77
2023/06/25 05:59:23;;;;;;;6.03;5.47;;;24.30;69.80;;;;;;5034327;28;43478;-78
2023/06/25 06:01:55;;;;;;;7.23;5.87;;;24.30;70.00;;;;;;5031652;28;44009;-77
2023/06/25 06:04:23;;;;;;;6.80;5.30;;;24.20;70.00;;;;;;5048241;28;43993;-77
2023/06/25 06:06:52;;;;;;;7.37;5.97;;;24.20;70.00;;;;;;5048030;28;43398;-77
2023/06/25 06:09:20;;;;;;;6.40;5.87;;;24.10;70.10;;;;;;5030255;28;43398;-76
2023/06/25 06:11:50;;;;;;;5.77;5.10;;;24.10;70.50;;;;;;5048857;28;43528;-77
2023/06/25 06:14:20;;;;;;;7.53;5.70;;;24.10;70.50;;;;;;5029578;28;45328;-77
2023/06/25 06:16:48;;;;;;;5.60;5.20;;;24.00;70.40;;;;;;5047904;28;43906;-77
2023/06/25 06:19:17;;;;;;;6.07;5.57;;;24.00;70.50;;;;;;5047949;28;43412;-77
2023/06/25 06:21:51;;;;;;;7.00;5.57;;;24.00;70.70;;;;;;5046162;28;43505;-78
2023/06/25 06:24:22;;;;;;;6.43;5.83;;;24.00;70.80;;;;;;5022864;28;44312;-77
2023/06/25 06:26:54;;;;;;;6.30;5.70;;;24.10;70.50;;;;;;5047300;28;43469;-77
2023/06/25 06:29:34;;;;;;;5.97;5.40;;;24.20;70.10;;;;;;5040706;28;43438;-78
2023/06/25 06:32:19;;;;;;;6.30;5.70;;;24.30;69.70;;;;;;5043757;28;43430;-78
2023/06/25 06:34:55;;;;;;;5.70;5.20;;;24.40;69.60;;;;;;5046787;28;43878;-76
2023/06/25 06:37:45;;;;;;;6.47;5.43;;;24.30;69.50;;;;;;5030674;28;44608;-76
2023/06/25 06:40:14;;;;;;;5.97;5.23;;;24.30;69.90;;;;;;5029409;28;43492;-76
2023/06/25 06:42:49;;;;;;;6.07;5.43;;;24.20;70.10;;;;;;5048222;28;43452;-77
2023/06/25 06:45:23;;;;;;;6.00;5.40;;;24.10;70.00;;;;;;5042898;28;43662;-76
2023/06/25 06:48:28;;;;;;;5.83;5.27;;;24.10;70.10;;;;;;5047796;28;43625;-77
2023/06/25 06:51:04;;;;;;;7.00;5.57;;;24.10;70.30;;;;;;5039977;28;43401;-77
2023/06/25 06:53:38;;;;;;;7.67;5.50;;;24.00;70.60;;;;;;5048214;28;43495;-77
2023/06/25 06:56:26;;;;;;;6.07;5.33;;;24.00;70.60;;;;;;5047566;28;43827;-78
2023/06/25 06:59:06;;;;;;;5.57;5.07;;;24.00;70.60;;;;;;5029514;28;44574;-77
2023/06/25 07:01:44;;;;;;;5.60;5.10;;;24.00;70.90;;;;;;5042380;28;43483;-77
2023/06/25 07:04:26;;;;;;;6.03;5.50;;;24.00;71.00;;;;;;5032861;28;43909;-76
2023/06/25 07:07:18;;;;;;;5.70;5.20;;;24.10;70.70;;;;;;5047202;28;43965;-78
2023/06/25 07:09:58;;;;;;;6.03;5.30;;;24.20;70.40;;;;;;5053652;28;44574;-78
2023/06/25 07:12:41;;;;;;;5.57;5.07;;;24.30;70.00;;;;;;5039180;28;44043;-77
2023/06/25 07:15:45;;;;;;;5.80;5.30;;;24.30;69.80;;;;;;5025868;28;43433;-77
2023/06/25 07:18:49;;;;;;;4.90;4.60;;;24.30;69.80;;;;;;5027841;28;45476;-77
2023/06/25 07:21:25;;;;;;;5.53;5.13;;;24.20;70.10;;;;;;5044553;28;43457;-77
2023/06/25 07:24:36;;;;;;;5.33;4.83;;;24.10;70.40;;;;;;5028040;28;43443;-77
2023/06/25 07:30:46;;;;;;;5.70;5.20;;;24.10;70.50;;;;;;5054190;28;45424;-76
2023/06/25 07:33:40;;;;;;;5.30;4.90;;;24.00;70.90;;;;;;5054714;28;44501;-76
2023/06/25 07:36:13;;;;;;;4.93;4.50;;;24.00;70.80;;;;;;5025158;28;43399;-76
2023/06/25 07:38:44;;;;;;;5.10;4.70;;;24.00;70.80;;;;;;5032972;28;43892;-78
2023/06/25 07:41:13;;;;;;;5.20;4.80;;;24.00;70.90;;;;;;5040008;28;43687;-77
2023/06/25 07:43:44;;;;;;;5.20;4.70;;;23.90;71.10;;;;;;5051235;28;43413;-78
2023/06/25 07:46:13;;;;;;;5.27;4.87;;;24.00;70.90;;;;;;5034539;28;43412;-75
2023/06/25 07:48:47;;;;;;;5.30;4.90;;;24.10;70.60;;;;;;5049429;28;43507;-79
2023/06/25 07:51:16;;;;;;;5.20;4.80;;;24.20;70.10;;;;;;5030004;28;45629;-79
2023/06/25 07:53:46;;;;;;;4.73;4.43;;;24.30;70.00;;;;;;5028552;28;44354;-77
2023/06/25 07:56:15;;;;;;;4.53;4.20;;;24.30;70.00;;;;;;5039120;28;43360;-77
2023/06/25 07:58:45;;;;;;;4.40;4.17;;;24.20;69.90;;;;;;5049640;28;43436;-77
2023/06/25 08:01:13;;;;;;;4.77;4.47;;;24.10;70.30;;;;;;5024780;28;45825;-78
2023/06/25 08:03:45;;;;;;;4.83;4.53;;;24.10;70.50;;;;;;5046331;28;43515;-78
2023/06/25 08:06:13;;;;;;;5.07;4.70;;;24.10;70.40;;;;;;5028748;28;43399;-76
2023/06/25 08:08:44;;;;;;;4.80;4.50;;;24.10;70.50;;;;;;5040591;28;43675;-77
2023/06/25 08:11:16;;;;;;;5.20;4.80;;;24.00;70.60;;;;;;5040992;28;45624;-78
2023/06/25 08:13:49;;;;;;;4.50;4.30;;;24.00;71.00;;;;;;5055738;28;44604;-77
2023/06/25 08:16:25;;;;;;;5.20;4.80;;;24.00;70.80;;;;;;5040868;28;43416;-77
2023/06/25 08:19:06;;;;;;;4.87;4.50;;;24.10;70.40;;;;;;5040003;28;43461;-78
2023/06/25 08:21:43;;;;;;;4.30;4.10;;;24.20;70.10;;;;;;5031269;28;45528;-79
2023/06/25 08:24:19;;;;;;;4.50;4.20;;;24.30;70.00;;;;;;5030183;28;44593;-78
2023/06/25 08:26:56;;;;;;;4.27;4.03;;;24.30;70.00;;;;;;5028183;28;43435;-76
2023/06/25 08:29:39;;;;;;;4.80;4.50;;;24.20;70.10;;;;;;5044968;28;43424;-78
2023/06/25 08:32:15;;;;;;;4.53;4.23;;;24.10;70.50;;;;;;5046271;28;43650;-78
2023/06/25 08:34:52;;;;;;;5.03;4.70;;;24.10;70.60;;;;;;5028276;28;44510;-77
2023/06/25 08:37:33;;;;;;;4.43;4.13;;;24.10;70.60;;;;;;5039783;28;43359;-78
2023/06/25 08:40:09;;;;;;;4.27;4.07;;;24.00;70.60;;;;;;5027790;28;43571;-79
2023/06/25 08:42:46;;;;;;;5.00;4.70;;;24.00;71.00;;;;;;5040731;28;44854;-78
2023/06/25 08:45:19;;;;;;;4.30;4.00;;;24.00;71.00;;;;;;5046119;28;43453;-76
2023/06/25 08:47:55;;;;;;;3.87;3.67;;;24.00;70.90;;;;;;5035117;28;43475;-77
2023/06/25 08:50:35;;;;;;;4.70;4.40;;;23.90;70.80;;;;;;5029120;28;43511;-77
2023/06/25 08:53:06;;;;;;;4.73;4.43;;;23.90;71.20;;;;;;5030819;28;44204;-72
2023/06/25 08:55:47;;;;;;;4.57;4.27;;;23.90;71.20;;;;;;5073371;28;43382;-71
2023/06/25 08:58:24;;;;;;;4.10;3.90;;;24.00;70.90;;;;;;5056169;28;43368;-72
2023/06/25 09:01:00;;;;;;;4.20;4.00;;;24.10;71.20;;;;;;5053524;28;43491;-71
2023/06/25 09:03:34;;;;;;;4.90;4.50;;;24.20;70.20;;;;;;5035875;28;44080;-74
2023/06/25 09:06:12;;;;;;;4.33;4.07;;;24.20;70.10;;;;;;5029641;28;44709;-74
2023/06/25 09:08:43;;;;;;;4.20;4.00;;;24.20;70.10;;;;;;5046387;28;43414;-73
2023/06/25 09:11:13;;;;;;;4.27;3.97;;;24.10;70.50;;;;;;5055053;28;43615;-75
2023/06/25 09:13:43;;;;;;;4.10;3.90;;;24.10;70.60;;;;;;5045987;28;44141;-75
2023/06/25 09:16:13;;;;;;;4.17;3.97;;;24.10;70.60;;;;;;5045864;28;43425;-74
2023/06/25 09:18:43;;;;;;;3.97;3.70;;;24.00;70.60;;;;;;5061134;28;43367;-73
2023/06/25 09:21:13;;;;;;;3.80;3.60;;;24.00;70.80;;;;;;5043799;28;43563;-74
2023/06/25 09:23:50;;;;;;;4.10;3.90;;;24.00;71.20;;;;;;5038558;28;43674;-73
2023/06/25 09:26:18;;;;;;;3.93;3.73;;;24.00;71.10;;;;;;5044478;28;44444;-73
2023/06/25 09:28:51;;;;;;;4.17;3.97;;;23.90;71.00;;;;;;5045857;28;43351;-73
2023/06/25 09:31:20;;;;;;;3.87;3.73;;;23.90;71.00;;;;;;5045640;28;43542;-75
2023/06/25 09:33:50;;;;;;;4.03;3.83;;;23.90;71.40;;;;;;5045403;28;43773;-72
2023/06/25 09:36:20;;;;;;;4.20;4.00;;;23.90;71.30;;;;;;5048665;28;43456;-73
2023/06/25 09:39:07;;;;;;;4.40;4.10;;;23.90;72.00;;;;;;5029529;28;43406;-74
2023/06/25 09:41:40;;;;;;;3.67;3.47;;;23.90;71.10;;;;;;5045819;28;43456;-74
2023/06/25 09:44:12;;;;;;;3.87;3.67;;;23.90;71.50;;;;;;5045138;28;44048;-75
2023/06/25 09:46:43;;;;;;;3.90;3.70;;;23.90;71.40;;;;;;5059645;28;44371;-73
2023/06/25 09:49:12;;;;;;;4.10;3.90;;;24.00;71.10;;;;;;5046844;28;43439;-73
2023/06/25 09:51:48;;;;;;;3.83;3.63;;;24.10;70.60;;;;;;5043884;28;43494;-74
2023/06/25 09:54:20;;;;;;;3.80;3.60;;;24.30;70.40;;;;;;5030204;28;45927;-73
2023/06/25 09:56:48;;;;;;;4.00;3.80;;;24.30;70.10;;;;;;5045145;28;43430;-73
2023/06/25 09:59:16;;;;;;;4.30;4.10;;;24.30;70.10;;;;;;5045228;28;43407;-73
2023/06/25 10:01:46;;;;;;;3.90;3.70;;;24.20;70.10;;;;;;5045227;28;43666;-75
2023/06/25 10:04:16;;;;;;;3.67;3.47;;;24.20;70.40;;;;;;5039114;28;44197;-76
2023/06/25 10:06:56;;;;;;;3.77;3.57;;;24.10;70.40;;;;;;5045148;28;43469;-74
2023/06/25 10:09:24;;;;;;;3.70;3.50;;;24.10;70.50;;;;;;5046071;28;44374;-73
2023/06/25 10:11:57;;;;;;;3.63;3.40;;;24.10;70.40;;;;;;5049109;28;43425;-73
2023/06/25 10:14:28;;;;;;;3.70;3.60;;;24.00;71.00;;;;;;5033967;28;45703;-76
2023/06/25 10:16:57;;;;;;;3.70;3.60;;;24.00;70.90;;;;;;5048776;28;43393;-76
2023/06/25 10:19:31;;;;;;;3.23;3.13;;;24.00;70.90;;;;;;5047631;28;43448;-75
2023/06/25 10:22:05;;;;;;;3.37;3.27;;;24.00;70.70;;;;;;5052554;28;43869;-75
2023/06/25 10:24:43;;;;;;;3.67;3.57;;;24.00;71.20;;;;;;5034620;28;46394;-76
2023/06/25 10:27:21;;;;;;;3.33;3.23;;;24.00;71.30;;;;;;5048355;28;43463;-75
2023/06/25 10:29:49;;;;;;;3.83;3.60;;;24.00;71.00;;;;;;5043482;28;43448;-75
2023/06/25 10:32:20;;;;;;;3.30;3.20;;;24.20;70.80;;;;;;5049140;28;43481;-74
2023/06/25 10:34:55;;;;;;;3.47;3.37;;;24.30;70.50;;;;;;5029404;28;45692;-74
2023/06/25 10:37:31;;;;;;;3.50;3.40;;;24.30;70.60;;;;;;5048539;28;43452;-75
2023/06/25 10:40:03;;;;;;;4.13;3.87;;;24.20;70.20;;;;;;5048105;28;43411;-74
2023/06/25 10:42:35;;;;;;;3.50;3.40;;;24.20;70.50;;;;;;5032215;28;43953;-74
2023/06/25 10:45:09;;;;;;;3.60;3.50;;;24.10;70.60;;;;;;5029190;28;45733;-75
2023/06/25 10:47:44;;;;;;;3.30;3.20;;;24.10;70.70;;;;;;5036317;28;44737;-75
2023/06/25 10:50:17;;;;;;;3.50;3.40;;;24.10;70.70;;;;;;5047727;28;43436;-75
2023/06/25 10:52:48;;;;;;;3.50;3.30;;;24.10;70.80;;;;;;5048107;28;43435;-74
2023/06/25 10:55:16;;;;;;;3.63;3.50;;;24.00;71.10;;;;;;5035186;28;45808;-75
2023/06/25 10:57:47;;;;;;;3.63;3.43;;;24.00;71.00;;;;;;5047744;28;43420;-74
2023/06/25 11:00:17;;;;;;;2.93;2.83;;;24.00;70.90;;;;;;5047973;28;43328;-75
2023/06/25 11:02:50;;;;;;;3.23;3.13;;;24.00;70.90;;;;;;5062758;28;43889;-74
2023/06/25 11:05:22;;;;;;;3.27;3.17;;;23.90;71.30;;;;;;5029316;28;45611;-74
2023/06/25 11:08:12;;;;;;;3.40;3.30;;;24.00;71.30;;;;;;5027963;28;44602;-73
2023/06/25 11:10:46;;;;;;;3.00;2.90;;;24.10;71.00;;;;;;5043097;28;43460;-73
2023/06/25 11:13:37;;;;;;;3.23;3.13;;;24.10;70.60;;;;;;5048256;28;43550;-74
2023/06/25 11:16:15;;;;;;;3.13;3.03;;;24.30;70.50;;;;;;5045206;28;44345;-75
2023/06/25 11:18:50;;;;;;;3.13;3.03;;;24.30;70.30;;;;;;5047076;28;43429;-74
2023/06/25 11:21:18;;;;;;;3.20;3.10;;;24.20;70.30;;;;;;5046709;28;43384;-76
2023/06/25 11:23:48;;;;;;;3.10;3.00;;;24.10;70.60;;;;;;5047304;28;43416;-74
2023/06/25 11:26:17;;;;;;;3.27;3.17;;;24.10;70.70;;;;;;5047379;28;43744;-73
2023/06/25 11:28:48;;;;;;;3.20;3.10;;;24.10;70.70;;;;;;5029443;28;44906;-73
2023/06/25 11:31:16;;;;;;;3.30;3.20;;;24.10;70.70;;;;;;5029357;28;43385;-75
2023/06/25 11:33:54;;;;;;;3.20;3.10;;;24.10;70.90;;;;;;5036245;28;43410;-75
2023/06/25 11:36:27;;;;;;;3.20;3.10;;;24.00;71.10;;;;;;5046809;28;43871;-75
2023/06/25 11:39:11;;;;;;;2.83;2.73;;;24.00;71.00;;;;;;5029258;28;43413;-72
2023/06/25 11:41:47;;;;;;;3.07;2.97;;;24.00;71.00;;;;;;5046496;28;43373;-75
2023/06/25 11:44:25;;;;;;;3.33;3.23;;;24.00;71.00;;;;;;5045812;28;43518;-76
2023/06/25 11:47:14;;;;;;;3.10;3.00;;;24.00;71.50;;;;;;5047154;28;44065;-74
2023/06/25 11:49:56;;;;;;;2.83;2.73;;;24.00;71.20;;;;;;5029232;28;44481;-74
2023/06/25 11:52:47;;;;;;;2.77;2.67;;;24.10;70.90;;;;;;5035603;28;43825;-76
2023/06/25 11:55:18;;;;;;;3.00;2.90;;;24.20;70.50;;;;;;5043628;28;43516;-74
2023/06/25 11:57:52;;;;;;;3.00;2.90;;;24.30;70.30;;;;;;5032709;28;45906;-76
2023/06/25 12:00:32;;;;;;;3.10;3.00;;;24.30;70.30;;;;;;5043278;28;43465;-75
2023/06/25 12:03:03;;;;;;;3.50;3.40;;;24.20;70.20;;;;;;5059837;28;43440;-74
2023/06/25 12:05:38;;;;;;;3.03;2.97;;;24.20;70.70;;;;;;5047115;28;43361;-75
2023/06/25 12:08:22;;;;;;;2.77;2.67;;;24.10;70.60;;;;;;5055618;28;45333;-75
2023/06/25 12:11:07;;;;;;;2.90;2.80;;;24.10;70.50;;;;;;5046705;28;43368;-72
2023/06/25 12:13:47;;;;;;;2.80;2.70;;;24.10;70.50;;;;;;5036290;28;44176;-78
2023/06/25 12:16:18;;;;;;;3.17;3.07;;;24.00;71.20;;;;;;5047000;28;43500;-75
2023/06/25 12:18:47;;;;;;;2.73;2.63;;;24.00;71.00;;;;;;5027861;28;45595;-74
2023/06/25 12:21:20;;;;;;;2.80;2.70;;;24.00;70.80;;;;;;5028486;28;45380;-73
2023/06/25 12:23:57;;;;;;;2.73;2.63;;;24.00;70.70;;;;;;5049246;28;43704;-76
2023/06/25 12:26:34;;;;;;;2.83;2.73;;;24.00;71.40;;;;;;5036907;28;43384;-75
2023/06/25 12:29:13;;;;;;;3.00;2.90;;;24.00;71.30;;;;;;5046578;28;44137;-75
2023/06/25 12:31:55;;;;;;;2.70;2.70;;;24.10;71.10;;;;;;5046014;28;43455;-74
2023/06/25 12:34:34;;;;;;;2.87;2.77;;;24.20;70.70;;;;;;5045447;28;43402;-75
2023/06/25 12:37:08;;;;;;;2.90;2.80;;;24.30;70.40;;;;;;5049082;28;43483;-76
2023/06/25 12:39:45;;;;;;;2.83;2.73;;;24.30;70.30;;;;;;5046138;28;43941;-76
2023/06/25 12:42:40;;;;;;;2.30;2.30;;;24.30;70.20;;;;;;5035903;28;44686;-75
2023/06/25 12:45:21;;;;;;;2.47;2.47;;;24.10;70.50;;;;;;5028119;28;43443;-77
2023/06/25 12:47:52;;;;;;;2.77;2.67;;;24.10;70.60;;;;;;5033263;28;43466;-73
2023/06/25 12:50:22;;;;;;;2.80;2.70;;;24.10;70.60;;;;;;5041873;28;44340;-74
2023/06/25 12:52:59;;;;;;;2.90;2.80;;;24.10;71.20;;;;;;5044042;28;43487;-75
2023/06/25 12:55:38;;;;;;;2.70;2.60;;;24.00;70.90;;;;;;5046344;28;43486;-73
2023/06/25 12:58:17;;;;;;;2.90;2.80;;;24.00;71.10;;;;;;5046769;28;43982;-75
2023/06/25 13:00:50;;;;;;;2.30;2.30;;;24.00;70.90;;;;;;5040380;28;45317;-74
2023/06/25 13:03:56;;;;;;;2.73;2.63;;;24.00;70.70;;;;;;5024773;28;44645;-75
2023/06/25 13:07:01;;;;;;;2.30;2.30;;;24.00;71.30;;;;;;5045940;28;43858;-74
2023/06/25 13:09:58;;;;;;;2.60;2.60;;;24.00;71.30;;;;;;5045836;28;43432;-75
2023/06/25 13:13:13;;;;;;;2.83;2.73;;;24.10;71.00;;;;;;5039856;28;44050;-75
2023/06/25 13:16:12;;;;;;;2.30;2.30;;;24.20;70.60;;;;;;5045752;28;43349;-74
2023/06/25 13:19:38;;;;;;;2.50;2.50;;;24.20;70.30;;;;;;5016938;28;44080;-74
2023/06/25 13:22:33;;;;;;;2.67;2.60;;;24.20;70.20;;;;;;5033391;28;43599;-75
2023/06/25 13:26:08;;;;;;;2.67;2.63;;;24.10;70.60;;;;;;5042242;28;43613;-74
2023/06/25 13:29:02;;;;;;;2.60;2.50;;;24.10;70.80;;;;;;5014145;28;44636;-75
2023/06/25 13:35:16;;;;;;;2.53;2.50;;;24.00;70.90;;;;;;5024795;28;43444;-75
2023/06/25 13:38:31;;;;;;;2.80;2.70;;;24.00;71.20;;;;;;5046502;28;44039;-73